Latest Weather Forecast - Sunday 12th September 2021 (6 pm)

Forecast Period: 

6 pm 12th September to 6 am 13th September 2021 

Synopsis: A tropical wave continues to affect the islands
Forecast:

Partly cloudy to cloudy with occasional light to moderate showers and a slight chance of isolated thunderstorms

Weather Advisory:

Residents and motorists in areas prone to landslides or near rivers and streams should remain alert

Winds:

NE - SE at less than 20 km/h (< 12 mph) with higher gusts near showers

Sea Conditions:

Slight in open water; with swells from (0.5 – 1.2 m)

Marine Advisory/Warning:

None
Upcoming Tides:
 High: High: 11:20 pm(12th) 10:00 pm
 Low:

Low:

04:13 am

07:03 pm

Aviation WX

[Source: ADDS]
METAR
TVSA 271200Z 00000KT 9999 BKN016 SCT028 BKN070 26/25 Q1015 TEMPO SHRA =
TVSA 271100Z 2712/2812 11004KT 9999 FEW012CB SCT016 TEMPO 2712/2715 5000 TSRA SCT012CB BKN014
TAF
TVSA 271100Z 2712/2812 11004KT 9999 FEW012CB SCT016 TEMPO 2712/2715 5000 TSRA SCT012CB BKN014 =
SR / SS: 09:53 / 21:57 UTC (Sunrise Sunset 2021-09-27)